createdAt,value
2017-08-20T00:01:06.338Z,16.40
2017-08-20T00:03:33.617Z,16.30
2017-08-20T00:06:01.300Z,16.30
2017-08-20T00:08:28.733Z,16.20
2017-08-20T00:10:55.269Z,16.20
2017-08-20T00:13:22.539Z,16.20
2017-08-20T00:15:49.057Z,16.20
2017-08-20T00:18:15.341Z,16.20
2017-08-20T00:20:42.384Z,16.30
2017-08-20T00:23:09.447Z,16.30
2017-08-20T00:25:36.278Z,16.30
2017-08-20T00:28:03.641Z,16.30
2017-08-20T00:30:30.327Z,16.30
2017-08-20T00:32:56.582Z,16.30
2017-08-20T00:35:24.469Z,16.30
2017-08-20T00:37:51.458Z,16.30
2017-08-20T00:40:17.962Z,16.30
2017-08-20T00:42:44.306Z,16.20
2017-08-20T00:45:12.089Z,16.20
2017-08-20T00:47:38.871Z,16.30
2017-08-20T00:50:06.178Z,16.30
2017-08-20T00:52:34.968Z,16.30
2017-08-20T00:55:01.932Z,16.30
2017-08-20T00:57:28.673Z,16.30
2017-08-20T00:59:55.389Z,16.20
2017-08-20T01:02:21.708Z,16.10
2017-08-20T01:04:48.611Z,16.10
2017-08-20T01:07:15.602Z,16.30
2017-08-20T01:09:42.833Z,16.30
2017-08-20T01:12:10.791Z,16.30
2017-08-20T01:14:37.707Z,16.20
2017-08-20T01:17:04.595Z,16.30
2017-08-20T01:19:31.545Z,16.30
2017-08-20T01:21:57.848Z,16.30
2017-08-20T01:24:25.546Z,16.20
2017-08-20T01:26:51.928Z,16.20
2017-08-20T01:29:19.575Z,16.20
2017-08-20T01:31:47.146Z,16.10
2017-08-20T01:34:13.416Z,16.20
2017-08-20T01:36:39.807Z,16.20
2017-08-20T01:39:06.062Z,16.30
2017-08-20T01:41:32.889Z,16.20
2017-08-20T01:43:59.924Z,16.20
2017-08-20T01:46:26.707Z,16.20
2017-08-20T01:48:52.978Z,16.20
2017-08-20T01:51:19.781Z,16.20
2017-08-20T01:53:46.050Z,16.30
2017-08-20T01:56:12.493Z,16.30
2017-08-20T01:58:40.012Z,16.10
2017-08-20T02:01:06.548Z,16.10
2017-08-20T02:03:32.816Z,16.10
2017-08-20T02:06:00.068Z,16.10
2017-08-20T02:08:26.424Z,16.10
2017-08-20T02:10:53.249Z,16.20
2017-08-20T02:13:20.770Z,16.30
2017-08-20T02:15:47.296Z,16.30
2017-08-20T02:18:14.280Z,16.30
2017-08-20T02:20:40.576Z,16.30
2017-08-20T02:23:07.127Z,16.40
2017-08-20T02:25:33.444Z,16.30
2017-08-20T02:28:00.832Z,16.30
2017-08-20T02:30:27.123Z,16.20
2017-08-20T02:32:53.392Z,16.10
2017-08-20T02:35:21.430Z,15.90
2017-08-20T02:37:47.761Z,15.90
2017-08-20T02:40:15.038Z,16.00
2017-08-20T02:42:41.651Z,16.00
2017-08-20T02:45:07.907Z,16.00
2017-08-20T02:47:34.822Z,16.00
2017-08-20T02:50:01.699Z,16.10
2017-08-20T02:52:28.976Z,16.10
2017-08-20T02:54:55.354Z,16.00
2017-08-20T02:57:23.175Z,16.10
2017-08-20T02:59:49.538Z,16.10
2017-08-20T03:02:16.978Z,16.10
2017-08-20T03:04:45.480Z,16.00
2017-08-20T03:07:11.951Z,15.90
2017-08-20T03:09:39.165Z,15.90
2017-08-20T03:12:05.649Z,15.90
2017-08-20T03:14:32.840Z,15.90
2017-08-20T03:17:00.066Z,15.90
2017-08-20T03:19:26.612Z,15.80
2017-08-20T03:21:54.404Z,15.80
2017-08-20T03:24:20.994Z,15.80
2017-08-20T03:26:47.286Z,15.80
2017-08-20T03:29:13.638Z,15.70
2017-08-20T03:31:41.696Z,15.50
2017-08-20T03:34:08.612Z,15.50
2017-08-20T03:36:35.237Z,15.50
2017-08-20T03:39:01.574Z,15.50
2017-08-20T03:41:28.026Z,15.50
2017-08-20T03:43:54.312Z,15.40
2017-08-20T03:46:21.103Z,15.40
2017-08-20T03:48:49.331Z,15.30
2017-08-20T03:51:15.689Z,15.30
2017-08-20T03:53:42.313Z,15.20
2017-08-20T03:56:09.480Z,15.20
2017-08-20T03:58:36.361Z,15.20
2017-08-20T04:01:02.631Z,15.20
2017-08-20T04:03:29.875Z,15.10
2017-08-20T04:05:56.175Z,15.00
2017-08-20T04:08:22.445Z,15.00
2017-08-20T04:10:48.776Z,14.90
2017-08-20T04:13:15.085Z,14.90
2017-08-20T04:15:41.958Z,14.90
2017-08-20T04:18:08.486Z,14.90
2017-08-20T04:20:35.022Z,14.80
2017-08-20T04:23:01.557Z,14.80
2017-08-20T04:25:29.356Z,14.80
2017-08-20T04:27:55.640Z,14.70
2017-08-20T04:30:22.702Z,14.70
2017-08-20T04:32:49.319Z,14.70
2017-08-20T04:35:16.875Z,14.70
2017-08-20T04:37:43.447Z,14.70
2017-08-20T04:40:10.256Z,14.70
2017-08-20T04:42:37.074Z,14.70
2017-08-20T04:45:03.443Z,14.60
2017-08-20T04:47:31.112Z,14.60
2017-08-20T04:49:58.127Z,14.60
2017-08-20T04:52:24.763Z,14.60
2017-08-20T04:54:51.199Z,14.60
2017-08-20T04:57:17.815Z,14.70
2017-08-20T04:59:44.769Z,14.80
2017-08-20T05:02:11.914Z,15.00
2017-08-20T05:04:38.662Z,15.30
2017-08-20T05:07:04.920Z,15.60
2017-08-20T05:09:31.770Z,15.90
2017-08-20T05:11:59.015Z,16.10
2017-08-20T05:14:26.245Z,16.40
2017-08-20T05:16:53.143Z,16.70
2017-08-20T05:19:20.034Z,16.90
2017-08-20T05:21:47.276Z,17.30
2017-08-20T05:24:14.545Z,17.50
2017-08-20T05:26:41.036Z,17.80
2017-08-20T05:29:08.268Z,18.10
2017-08-20T05:31:35.351Z,18.40
2017-08-20T05:34:03.048Z,19.00
2017-08-20T05:36:29.642Z,18.90
2017-08-20T05:38:55.931Z,19.20
2017-08-20T05:41:22.898Z,19.50
2017-08-20T05:43:49.592Z,19.70
2017-08-20T05:46:16.487Z,19.90
2017-08-20T05:48:44.072Z,20.00
2017-08-20T05:51:10.734Z,20.20
2017-08-20T05:53:37.571Z,20.40
2017-08-20T05:56:03.965Z,20.60
2017-08-20T05:58:30.247Z,20.80
2017-08-20T06:00:57.157Z,20.90
2017-08-20T06:03:23.462Z,21.00
2017-08-20T06:05:50.244Z,21.10
2017-08-20T06:08:16.551Z,21.20
2017-08-20T06:10:43.473Z,21.40
2017-08-20T06:13:10.394Z,21.60
2017-08-20T06:15:37.000Z,21.90
2017-08-20T06:18:03.856Z,22.10
2017-08-20T06:20:30.426Z,22.40
2017-08-20T06:22:57.453Z,22.80
2017-08-20T06:25:23.699Z,22.80
2017-08-20T06:27:50.650Z,22.90
2017-08-20T06:30:17.597Z,22.80
2017-08-20T06:32:44.463Z,22.80
2017-08-20T06:35:11.456Z,23.00
2017-08-20T06:37:37.976Z,23.00
2017-08-20T06:40:04.340Z,23.20
2017-08-20T06:42:30.579Z,23.30
2017-08-20T06:44:56.868Z,23.10
2017-08-20T06:47:23.136Z,23.00
2017-08-20T06:49:49.906Z,23.10
2017-08-20T06:52:16.267Z,23.30
2017-08-20T06:54:42.510Z,23.30
2017-08-20T06:57:08.986Z,23.10
2017-08-20T06:59:36.015Z,23.20
2017-08-20T07:02:02.556Z,23.20
2017-08-20T07:04:28.851Z,23.40
2017-08-20T07:06:55.173Z,23.50
2017-08-20T07:09:21.778Z,23.70
2017-08-20T07:11:48.036Z,23.80
2017-08-20T07:14:14.467Z,23.90
2017-08-20T07:16:41.261Z,23.90
2017-08-20T07:19:08.304Z,23.80
2017-08-20T07:21:36.020Z,23.70
2017-08-20T07:24:02.347Z,23.80
2017-08-20T07:26:28.631Z,23.90
2017-08-20T07:28:56.577Z,24.20
2017-08-20T07:31:22.867Z,24.20
2017-08-20T07:33:50.125Z,23.90
2017-08-20T07:36:17.112Z,23.40
2017-08-20T07:38:43.439Z,23.40
2017-08-20T07:41:10.265Z,23.70
2017-08-20T07:43:43.068Z,23.80
2017-08-20T07:46:09.475Z,23.90
2017-08-20T07:48:36.507Z,23.70
2017-08-20T07:51:02.753Z,23.70
2017-08-20T07:53:29.705Z,23.60
2017-08-20T07:55:56.047Z,23.70
2017-08-20T07:58:22.327Z,23.70
2017-08-20T08:00:49.296Z,23.70
2017-08-20T08:03:15.926Z,23.80
2017-08-20T08:05:43.842Z,23.50
2017-08-20T08:08:10.108Z,23.50
2017-08-20T08:10:36.360Z,23.20
2017-08-20T08:15:35.584Z,22.90
2017-08-20T08:18:02.061Z,22.60
2017-08-20T08:20:29.132Z,22.20
2017-08-20T08:22:55.392Z,22.20
2017-08-20T08:25:22.321Z,22.00
2017-08-20T08:27:48.567Z,21.80
2017-08-20T08:30:15.128Z,21.90
2017-08-20T08:32:42.224Z,21.90
2017-08-20T08:35:09.016Z,22.20
2017-08-20T08:37:36.621Z,22.30
2017-08-20T08:40:02.953Z,22.30
2017-08-20T08:42:29.797Z,22.40
2017-08-20T08:44:56.925Z,22.00
2017-08-20T08:47:23.648Z,22.00
2017-08-20T08:49:51.271Z,21.70
2017-08-20T08:52:18.041Z,21.70
2017-08-20T08:54:45.326Z,21.70
2017-08-20T08:57:12.950Z,21.70
2017-08-20T08:59:40.218Z,21.60
2017-08-20T09:02:07.236Z,21.70
2017-08-20T09:04:33.514Z,21.60
2017-08-20T09:07:00.748Z,21.90
2017-08-20T09:09:26.995Z,22.20
2017-08-20T09:11:53.907Z,22.50
2017-08-20T09:14:21.824Z,22.90
2017-08-20T09:16:48.714Z,22.90
2017-08-20T09:19:14.979Z,22.90
2017-08-20T09:21:41.692Z,23.20
2017-08-20T09:24:08.953Z,23.50
2017-08-20T09:26:36.702Z,23.50
2017-08-20T09:29:03.743Z,23.60
2017-08-20T09:31:30.005Z,23.60
2017-08-20T09:33:56.324Z,23.50
2017-08-20T09:36:22.659Z,23.10
2017-08-20T09:38:50.076Z,22.70
2017-08-20T09:41:16.344Z,22.60
2017-08-20T09:43:42.603Z,22.60
2017-08-20T09:46:08.865Z,22.60
2017-08-20T09:48:35.900Z,22.70
2017-08-20T09:51:03.285Z,23.10
2017-08-20T09:53:30.615Z,23.20
2017-08-20T09:55:56.898Z,23.20
2017-08-20T09:58:23.762Z,23.40
2017-08-20T10:00:51.057Z,23.50
2017-08-20T10:03:18.146Z,23.70
2017-08-20T10:05:45.372Z,23.70
2017-08-20T10:08:13.309Z,23.90
2017-08-20T10:10:40.577Z,23.90
2017-08-20T10:13:08.315Z,23.90
2017-08-20T10:15:35.763Z,23.90
2017-08-20T10:18:02.808Z,23.90
2017-08-20T10:20:30.481Z,23.90
2017-08-20T10:22:57.756Z,23.60
2017-08-20T10:25:25.309Z,23.60
2017-08-20T10:27:52.580Z,23.50
2017-08-20T10:30:20.092Z,23.90
2017-08-20T10:32:46.375Z,23.80
2017-08-20T10:35:13.383Z,24.30
2017-08-20T10:37:39.862Z,24.20
2017-08-20T10:40:06.199Z,24.30
2017-08-20T10:42:33.415Z,24.40
2017-08-20T10:45:00.078Z,24.60
2017-08-20T10:47:27.866Z,24.70
2017-08-20T10:49:55.133Z,24.80
2017-08-20T10:52:21.737Z,24.90
2017-08-20T10:54:48.840Z,25.00
2017-08-20T10:57:16.537Z,25.00
2017-08-20T10:59:43.566Z,25.20
2017-08-20T11:02:11.514Z,25.30
2017-08-20T11:04:38.313Z,25.20
2017-08-20T11:07:05.142Z,25.30
2017-08-20T11:09:32.408Z,25.40
2017-08-20T11:11:58.662Z,25.60
2017-08-20T11:14:25.001Z,25.60
2017-08-20T11:16:51.307Z,25.30
2017-08-20T11:19:17.561Z,25.40
2017-08-20T11:21:44.412Z,25.40
2017-08-20T11:24:11.215Z,25.00
2017-08-20T11:26:39.382Z,25.00
2017-08-20T11:29:06.641Z,24.80
2017-08-20T11:31:32.994Z,24.80
2017-08-20T11:33:59.490Z,24.80
2017-08-20T11:36:26.575Z,24.90
2017-08-20T11:38:52.859Z,24.90
2017-08-20T11:41:19.132Z,25.00
2017-08-20T11:43:45.893Z,25.10
2017-08-20T11:46:12.173Z,24.80
2017-08-20T11:48:38.470Z,24.60
2017-08-20T11:51:05.948Z,24.50
2017-08-20T11:53:33.742Z,24.60
2017-08-20T11:56:00.558Z,24.90
2017-08-20T11:58:27.005Z,25.10
2017-08-20T12:00:54.864Z,25.10
2017-08-20T12:03:22.343Z,25.10
2017-08-20T12:05:48.671Z,25.10
2017-08-20T12:08:15.624Z,25.30
2017-08-20T12:10:41.897Z,25.30
2017-08-20T12:13:08.993Z,24.70
2017-08-20T12:15:35.814Z,24.70
2017-08-20T12:18:02.882Z,24.60
2017-08-20T12:20:29.259Z,24.60
2017-08-20T12:22:56.397Z,24.30
2017-08-20T12:25:24.538Z,24.30
2017-08-20T12:27:50.824Z,24.40
2017-08-20T12:30:18.485Z,24.20
2017-08-20T12:32:47.373Z,23.90
2017-08-20T12:35:13.705Z,23.90
2017-08-20T12:37:41.712Z,23.80
2017-08-20T12:40:08.237Z,23.80
2017-08-20T12:42:34.973Z,24.00
2017-08-20T12:45:01.895Z,23.90
2017-08-20T12:47:28.167Z,24.10
2017-08-20T12:49:54.471Z,24.30
2017-08-20T12:52:21.103Z,24.40
2017-08-20T12:54:48.773Z,24.20
2017-08-20T12:57:15.060Z,24.10
2017-08-20T12:59:41.333Z,24.00
2017-08-20T13:02:08.584Z,24.00
2017-08-20T13:04:35.320Z,23.90
2017-08-20T13:07:03.301Z,23.80
2017-08-20T13:09:31.389Z,23.70
2017-08-20T13:11:58.655Z,23.70
2017-08-20T13:14:25.705Z,23.80
2017-08-20T13:16:52.043Z,23.80
2017-08-20T13:19:18.332Z,23.90
2017-08-20T13:21:44.609Z,24.00
2017-08-20T13:24:11.506Z,24.10
2017-08-20T13:26:39.112Z,24.30
2017-08-20T13:29:05.400Z,24.30
2017-08-20T13:31:31.707Z,24.60
2017-08-20T13:33:58.988Z,24.40
2017-08-20T13:36:25.295Z,24.20
2017-08-20T13:38:52.268Z,24.10
2017-08-20T13:41:18.666Z,24.00
2017-08-20T13:43:45.511Z,23.90
2017-08-20T13:46:12.746Z,23.70
2017-08-20T13:48:39.573Z,23.50
2017-08-20T13:51:06.601Z,23.30
2017-08-20T13:53:32.890Z,23.30
2017-08-20T13:55:59.144Z,23.20
2017-08-20T13:58:25.421Z,23.20
2017-08-20T14:03:25.453Z,23.50
2017-08-20T14:05:52.455Z,23.60
2017-08-20T14:08:18.748Z,23.60
2017-08-20T14:10:45.023Z,23.50
2017-08-20T14:13:11.280Z,23.40
2017-08-20T14:15:38.343Z,23.60
2017-08-20T14:18:05.778Z,23.50
2017-08-20T14:20:33.164Z,23.70
2017-08-20T14:23:00.416Z,23.70
2017-08-20T14:25:26.707Z,23.80
2017-08-20T14:27:52.988Z,23.90
2017-08-20T14:30:20.276Z,24.00
2017-08-20T14:32:47.532Z,23.90
2017-08-20T14:35:14.602Z,23.60
2017-08-20T14:37:41.662Z,23.00
2017-08-20T14:40:07.929Z,23.00
2017-08-20T14:42:35.016Z,22.80
2017-08-20T14:45:01.272Z,22.60
2017-08-20T14:47:27.928Z,22.30
2017-08-20T14:49:54.223Z,22.20
2017-08-20T14:52:20.518Z,22.20
2017-08-20T14:54:46.755Z,22.30
2017-08-20T14:57:13.644Z,22.30
2017-08-20T14:59:40.561Z,22.40
2017-08-20T15:02:07.978Z,22.90
2017-08-20T15:04:34.684Z,22.90
2017-08-20T15:07:00.940Z,23.10
2017-08-20T15:09:27.958Z,23.30
2017-08-20T15:11:54.245Z,23.30
2017-08-20T15:14:20.596Z,23.30
2017-08-20T15:16:47.620Z,23.10
2017-08-20T15:19:13.889Z,23.10
2017-08-20T15:21:40.541Z,23.00
2017-08-20T15:24:06.799Z,23.00
2017-08-20T15:26:33.745Z,22.90
2017-08-20T15:29:00.026Z,22.90
2017-08-20T15:31:26.899Z,22.90
2017-08-20T15:33:54.625Z,22.90
2017-08-20T15:36:21.169Z,22.90
2017-08-20T15:38:47.430Z,22.90
2017-08-20T15:41:13.743Z,22.80
2017-08-20T15:43:40.175Z,22.70
2017-08-20T15:46:06.454Z,22.70
2017-08-20T15:48:33.033Z,22.60
2017-08-20T15:50:59.309Z,22.50
2017-08-20T15:53:25.584Z,22.40
2017-08-20T15:55:52.462Z,22.20
2017-08-20T15:58:18.777Z,22.10
2017-08-20T16:00:45.053Z,22.00
2017-08-20T16:03:11.643Z,21.90
2017-08-20T16:05:38.528Z,21.90
2017-08-20T16:08:04.799Z,21.80
2017-08-20T16:10:31.130Z,21.80
2017-08-20T16:12:57.410Z,21.70
2017-08-20T16:15:24.299Z,21.70
2017-08-20T16:17:50.617Z,21.70
2017-08-20T16:20:17.665Z,21.70
2017-08-20T16:22:45.186Z,21.80
2017-08-20T16:25:11.618Z,21.80
2017-08-20T16:27:38.663Z,21.80
2017-08-20T16:30:04.962Z,21.90
2017-08-20T16:32:31.301Z,21.80
2017-08-20T16:34:58.530Z,21.80
2017-08-20T16:37:25.145Z,21.80
2017-08-20T16:39:52.829Z,21.70
2017-08-20T16:42:20.118Z,21.70
2017-08-20T16:44:46.440Z,21.70
2017-08-20T16:47:12.735Z,21.70
2017-08-20T16:49:39.072Z,21.70
2017-08-20T16:52:05.985Z,21.70
2017-08-20T16:54:33.316Z,21.50
2017-08-20T16:57:00.587Z,21.50
2017-08-20T16:59:27.641Z,21.40
2017-08-20T17:01:54.938Z,21.40
2017-08-20T17:04:21.359Z,21.30
2017-08-20T17:06:48.268Z,21.20
2017-08-20T17:09:15.241Z,21.20
2017-08-20T17:11:42.480Z,21.20
2017-08-20T17:14:08.781Z,21.10
2017-08-20T17:16:36.584Z,21.00
2017-08-20T17:19:03.856Z,20.90
2017-08-20T17:21:31.101Z,20.90
2017-08-20T17:23:58.039Z,20.80
2017-08-20T17:26:24.323Z,20.80
2017-08-20T17:28:50.906Z,20.80
2017-08-20T17:31:17.875Z,20.80
2017-08-20T17:33:44.539Z,20.80
2017-08-20T17:36:11.583Z,20.70
2017-08-20T17:38:38.601Z,20.70
2017-08-20T17:41:05.937Z,20.70
2017-08-20T17:43:32.435Z,20.60
2017-08-20T17:45:59.723Z,20.60
2017-08-20T17:48:25.972Z,20.50
2017-08-20T17:50:53.900Z,20.50
2017-08-20T17:53:20.180Z,20.40
2017-08-20T17:55:46.723Z,20.30
2017-08-20T17:58:13.718Z,20.20
2017-08-20T18:00:40.007Z,20.10
2017-08-20T18:03:06.305Z,20.00
2017-08-20T18:05:32.678Z,19.90
2017-08-20T18:08:00.657Z,19.60
2017-08-20T18:10:29.707Z,19.70
2017-08-20T18:12:56.066Z,19.50
2017-08-20T18:15:22.720Z,19.30
2017-08-20T18:17:49.732Z,19.20
2017-08-20T18:20:15.991Z,19.10
2017-08-20T18:22:42.246Z,19.10
2017-08-20T18:25:08.539Z,19.00
2017-08-20T18:27:34.863Z,19.00
2017-08-20T18:30:01.157Z,19.00
2017-08-20T18:32:27.437Z,19.00
2017-08-20T18:34:54.876Z,18.80
2017-08-20T18:37:21.142Z,18.70
2017-08-20T18:39:47.409Z,18.60
2017-08-20T18:42:13.697Z,18.50
2017-08-20T18:44:39.983Z,18.50
2017-08-20T18:47:06.642Z,18.40
2017-08-20T18:49:35.836Z,18.30
2017-08-20T18:52:02.247Z,18.30
2017-08-20T18:54:28.583Z,18.10
2017-08-20T18:56:54.863Z,18.10
2017-08-20T18:59:22.466Z,18.00
2017-08-20T19:01:52.601Z,18.00
2017-08-20T19:04:21.410Z,17.70
2017-08-20T19:06:53.543Z,17.60
2017-08-20T19:09:21.132Z,17.50
2017-08-20T19:11:47.440Z,17.50
2017-08-20T19:14:13.726Z,17.50
2017-08-20T19:16:39.992Z,17.50
2017-08-20T19:19:06.257Z,17.50
2017-08-20T19:21:32.516Z,17.40
2017-08-20T19:23:59.348Z,17.30
2017-08-20T19:26:27.029Z,17.30
2017-08-20T19:28:53.914Z,17.20
2017-08-20T19:31:20.217Z,17.20
2017-08-20T19:33:47.637Z,17.10
2017-08-20T19:36:14.006Z,17.10
2017-08-20T19:38:41.288Z,17.00
2017-08-20T19:41:09.163Z,16.90
2017-08-20T19:43:38.989Z,16.80
2017-08-20T19:46:06.028Z,16.80
2017-08-20T19:48:34.003Z,16.70
2017-08-20T19:51:08.331Z,16.70
2017-08-20T19:53:34.662Z,16.60
2017-08-20T19:56:01.311Z,16.60
2017-08-20T19:58:27.948Z,16.50
2017-08-20T20:00:54.272Z,16.50
2017-08-20T20:03:21.150Z,16.50
2017-08-20T20:05:48.363Z,16.40
2017-08-20T20:08:15.386Z,16.30
2017-08-20T20:10:41.693Z,16.30
2017-08-20T20:13:10.418Z,16.20
2017-08-20T20:15:36.751Z,16.10
2017-08-20T20:18:03.055Z,16.00
2017-08-20T20:20:30.669Z,15.90
2017-08-20T20:22:57.025Z,15.90
2017-08-20T20:25:23.312Z,15.90
2017-08-20T20:27:50.537Z,15.90
2017-08-20T20:30:18.041Z,15.80
2017-08-20T20:32:45.090Z,15.80
2017-08-20T20:35:12.067Z,15.70
2017-08-20T20:37:39.600Z,15.60
2017-08-20T20:40:05.863Z,15.60
2017-08-20T20:42:32.750Z,15.60
2017-08-20T20:44:59.919Z,15.50
2017-08-20T20:47:26.226Z,15.50
2017-08-20T20:49:52.547Z,15.40
2017-08-20T20:52:19.201Z,15.40
2017-08-20T20:54:45.445Z,15.40
2017-08-20T20:57:12.732Z,15.30
2017-08-20T20:59:39.886Z,15.10
2017-08-20T21:02:06.181Z,15.10
2017-08-20T21:04:32.948Z,15.10
2017-08-20T21:06:59.246Z,15.10
2017-08-20T21:09:26.120Z,15.10
2017-08-20T21:11:53.150Z,15.00
2017-08-20T21:14:20.044Z,15.00
2017-08-20T21:16:46.399Z,15.00
2017-08-20T21:19:13.289Z,14.90
2017-08-20T21:21:40.343Z,14.60
2017-08-20T21:24:07.174Z,14.60
2017-08-20T21:26:34.209Z,14.40
2017-08-20T21:29:01.983Z,14.30
2017-08-20T21:31:30.076Z,14.50
2017-08-20T21:33:56.366Z,14.50
2017-08-20T21:36:22.632Z,14.50
2017-08-20T21:38:48.945Z,14.50
2017-08-20T21:41:16.266Z,14.50
2017-08-20T21:43:43.695Z,14.50
2017-08-20T21:46:10.579Z,14.50
2017-08-20T21:48:37.600Z,14.50
2017-08-20T21:51:03.963Z,14.60
2017-08-20T21:53:30.807Z,14.70
2017-08-20T21:55:58.023Z,14.70
2017-08-20T21:58:24.925Z,14.70
2017-08-20T22:00:52.887Z,14.70
2017-08-20T22:03:19.910Z,14.60
2017-08-20T22:05:46.205Z,14.60
2017-08-20T22:08:12.670Z,14.60
2017-08-20T22:10:38.987Z,14.60
2017-08-20T22:13:05.266Z,14.50
2017-08-20T22:15:32.207Z,14.30
2017-08-20T22:17:59.221Z,14.20
2017-08-20T22:20:25.766Z,14.20
2017-08-20T22:22:52.641Z,14.20
2017-08-20T22:25:20.297Z,14.20
2017-08-20T22:27:46.670Z,14.20
2017-08-20T22:30:13.590Z,14.30
2017-08-20T22:32:41.104Z,14.30
2017-08-20T22:35:07.901Z,14.30
2017-08-20T22:37:34.208Z,14.20
2017-08-20T22:40:00.985Z,14.20
2017-08-20T22:42:27.290Z,14.20
2017-08-20T22:44:53.548Z,14.10
2017-08-20T22:47:20.157Z,14.20
2017-08-20T22:49:47.105Z,14.10
2017-08-20T22:52:13.372Z,14.10
2017-08-20T22:54:39.680Z,14.00
2017-08-20T22:57:06.134Z,13.90
2017-08-20T22:59:32.451Z,13.90
2017-08-20T23:01:58.724Z,13.90
2017-08-20T23:04:25.993Z,14.00
2017-08-20T23:06:52.277Z,14.00
2017-08-20T23:09:18.613Z,14.10
2017-08-20T23:11:45.635Z,14.10
2017-08-20T23:14:12.799Z,14.00
2017-08-20T23:16:39.769Z,13.90
2017-08-20T23:19:07.525Z,13.90
2017-08-20T23:21:33.877Z,13.90
2017-08-20T23:24:01.147Z,13.90
2017-08-20T23:26:27.422Z,13.90
2017-08-20T23:28:53.727Z,14.00
2017-08-20T23:31:20.524Z,13.90
2017-08-20T23:33:47.549Z,13.90
2017-08-20T23:36:13.857Z,13.90
2017-08-20T23:38:41.244Z,14.00
2017-08-20T23:41:08.299Z,13.90
2017-08-20T23:43:35.315Z,13.90
2017-08-20T23:46:01.731Z,13.90
2017-08-20T23:48:28.305Z,13.90
2017-08-20T23:50:55.664Z,13.90
2017-08-20T23:53:23.731Z,14.00
2017-08-20T23:55:51.711Z,13.90
2017-08-20T23:58:19.316Z,13.90
